Corydon, KY

4:01 PM CST on February 19, 2017 (GMT -0600)
Henderson City-County

Weather History for KEHR - October, 2012

Change the Weather History Date:

Sunday, October 14, 2012

  Actual Average Record
Temperature  
Mean Temperature 65 °F -  
Max Temperature 75 °F 72 °F 91 °F (1935)
Min Temperature 55 °F 47 °F 28 °F (1987)
Growing Degree Days 15 (Base 50)    
Moisture  
Dew Point 56 °F    
Average Humidity 66    
Maximum Humidity 78    
Minimum Humidity 50    
Precipitation  
Precipitation 0.07 in - - ()
Sea Level Pressure  
Sea Level Pressure 29.85 in    
Wind  
Wind Speed 17 mph (SW)    
Max Wind Speed 28 mph    
Max Gust Speed 41 mph    
Visibility 10 miles    
Events      
Averages and records for this station are not official NWS values.
T = Trace of Precipitation, MM = Missing Value Source: NWS Daily Summary

Daily Weather History Graph

Daily Weather History Graph

Search for Another Location

Airport or City:

Trip Planner

Search our weather history database for the weather conditions in past years. The results will help you decide how hot, cold, wet, or windy it might be!

Date:

Astronomy

Oct. 14, 2012 Rise Set
Actual Time 6:58 AM CDT 6:13 PM CDT
Civil Twilight 6:32 AM CDT 6:40 PM CDT
Nautical Twilight 6:01 AM CDT 7:10 PM CDT
Astronomical Twilight 5:31 AM CDT 7:41 PM CDT
Moon 5:57 AM CDT (10/14) 5:33 PM CDT (10/14)
Length of Visible Light 12h 08m
Length of Day
11h 15m
Waning Crescent, 1% of the Moon is Illuminated
Oct 14
Waning Crescent
Oct 15
New
Oct 21
First Quarter
Oct 29
Full
Nov 6
Last Quarter

Hourly Weather History & Observations

Time (CDT) Temp. Dew Point Humidity Pressure Visibility Wind Dir Wind Speed Gust Speed Precip Events Conditions
12:15 AM 69.8 °F 59.0 °F 68% 29.92 in 10.0 mi South 16.1 mph 21.9 mph N/A   Partly Cloudy
12:35 AM 69.8 °F 59.0 °F 68% 29.92 in 10.0 mi South 17.3 mph 24.2 mph N/A   Clear
12:55 AM 69.8 °F 57.2 °F 64% 29.92 in 10.0 mi South 20.7 mph 24.2 mph N/A   Clear
1:15 AM 69.8 °F 57.2 °F 64% 29.92 in 10.0 mi South 12.7 mph 20.7 mph N/A   Clear
1:35 AM 69.8 °F 57.2 °F 64% 29.92 in 10.0 mi South 13.8 mph 25.3 mph N/A   Clear
1:55 AM 69.8 °F 57.2 °F 64% 29.91 in 10.0 mi South 13.8 mph 25.3 mph N/A   Clear
2:15 AM 69.8 °F 57.2 °F 64% 29.91 in 10.0 mi South 17.3 mph 21.9 mph N/A   Clear
2:35 AM 69.8 °F 57.2 °F 64% 29.90 in 10.0 mi South 15.0 mph - N/A   Clear
2:55 AM 69.8 °F 57.2 °F 64% 29.89 in 10.0 mi South 13.8 mph 19.6 mph N/A   Clear
3:15 AM 69.8 °F 57.2 °F 64% 29.90 in 10.0 mi South 12.7 mph 21.9 mph N/A   Clear
3:35 AM 69.8 °F 57.2 °F 64% 29.90 in 10.0 mi South 15.0 mph - N/A   Clear
3:55 AM 69.8 °F 57.2 °F 64% 29.90 in 10.0 mi South 16.1 mph 21.9 mph N/A   Clear
4:15 AM 69.8 °F 57.2 °F 64% 29.90 in 10.0 mi South 17.3 mph 21.9 mph N/A   Scattered Clouds
4:35 AM 69.8 °F 57.2 °F 64% 29.90 in 10.0 mi South 13.8 mph 19.6 mph N/A   Overcast
4:55 AM 69.8 °F 59.0 °F 68% 29.89 in 10.0 mi South 12.7 mph - N/A   Overcast
5:15 AM 69.8 °F 57.2 °F 64% 29.89 in 10.0 mi South 13.8 mph 21.9 mph N/A   Mostly Cloudy
5:35 AM 69.8 °F 59.0 °F 68% 29.89 in 10.0 mi South 18.4 mph 23.0 mph N/A   Overcast
5:55 AM 69.8 °F 59.0 °F 68% 29.89 in 10.0 mi SSW 20.7 mph 25.3 mph N/A   Overcast
6:15 AM 68.0 °F 59.0 °F 73% 29.90 in 10.0 mi SSW 20.7 mph 38.0 mph 0.02 in   Overcast
6:35 AM 66.2 °F 57.2 °F 73% 29.89 in 10.0 mi SSW 24.2 mph 40.3 mph 0.02 in   Overcast
6:55 AM 66.2 °F 57.2 °F 73% 29.88 in 10.0 mi SSW 24.2 mph 32.2 mph 0.03 in   Overcast
7:15 AM 66.2 °F 57.2 °F 73% 29.88 in 10.0 mi SSW 20.7 mph 27.6 mph N/A   Overcast
7:35 AM 66.2 °F 59.0 °F 78% 29.87 in 10.0 mi South 21.9 mph 26.5 mph N/A   Overcast
8:15 AM 68.0 °F 59.0 °F 73% 29.84 in 10.0 mi South 19.6 mph 25.3 mph N/A   Mostly Cloudy
8:35 AM 68.0 °F 59.0 °F 73% 29.82 in 10.0 mi South 23.0 mph 28.8 mph N/A   Mostly Cloudy
8:55 AM 66.2 °F 57.2 °F 73% 29.80 in 10.0 mi South 20.7 mph 26.5 mph N/A   Scattered Clouds
9:15 AM 68.0 °F 57.2 °F 68% 29.78 in 10.0 mi South 18.4 mph 29.9 mph N/A   Scattered Clouds
9:55 AM 69.8 °F 59.0 °F 68% 29.82 in 10.0 mi South 19.6 mph 26.5 mph N/A   Clear
10:15 AM 69.8 °F 59.0 °F 68% 29.84 in 10.0 mi SSW 24.2 mph 28.8 mph N/A   Clear
10:35 AM 71.6 °F 59.0 °F 64% 29.84 in 10.0 mi SSW 27.6 mph 34.5 mph N/A   Partly Cloudy
10:55 AM 71.6 °F 59.0 °F 64% 29.84 in 10.0 mi SSW 21.9 mph 27.6 mph N/A   Mostly Cloudy
11:15 AM 69.8 °F 57.2 °F 64% 29.83 in 10.0 mi SSW 17.3 mph 26.5 mph N/A   Overcast
11:35 AM 69.8 °F 57.2 °F 64% 29.83 in 10.0 mi SSW 21.9 mph 29.9 mph N/A   Overcast
11:55 AM 71.6 °F 59.0 °F 64% 29.83 in 10.0 mi SW 21.9 mph 29.9 mph N/A   Mostly Cloudy
12:15 PM 71.6 °F 57.2 °F 60% 29.83 in 10.0 mi SW 19.6 mph 31.1 mph N/A   Overcast
12:35 PM 71.6 °F 57.2 °F 60% 29.82 in 10.0 mi SW 23.0 mph 29.9 mph N/A   Overcast
12:55 PM 73.4 °F 57.2 °F 57% 29.81 in 10.0 mi SW 20.7 mph 31.1 mph N/A   Overcast
1:15 PM 73.4 °F 57.2 °F 57% 29.80 in 10.0 mi SW 21.9 mph 41.4 mph N/A   Mostly Cloudy
1:35 PM 71.6 °F 55.4 °F 57% 29.80 in 10.0 mi SW 25.3 mph 41.4 mph N/A   Overcast
1:55 PM 71.6 °F 55.4 °F 57% 29.79 in 10.0 mi SW 21.9 mph 31.1 mph N/A   Overcast
2:15 PM 71.6 °F 57.2 °F 60% 29.78 in 10.0 mi SW 24.2 mph 31.1 mph N/A   Overcast
2:35 PM 73.4 °F 55.4 °F 53% 29.77 in 10.0 mi SW 27.6 mph 35.7 mph N/A   Mostly Cloudy
3:35 PM 75.2 °F 55.4 °F 50% 29.77 in 10.0 mi SW 26.5 mph 32.2 mph N/A   Mostly Cloudy
3:55 PM 71.6 °F 55.4 °F 57% 29.77 in 10.0 mi SW 21.9 mph 28.8 mph N/A   Overcast
4:15 PM 71.6 °F 55.4 °F 57% 29.78 in 10.0 mi SW 20.7 mph 27.6 mph N/A   Overcast
4:35 PM 71.6 °F 55.4 °F 57% 29.78 in 10.0 mi SW 20.7 mph 25.3 mph N/A   Overcast
4:55 PM 71.6 °F 55.4 °F 57% 29.77 in 10.0 mi SSW 16.1 mph 23.0 mph N/A   Overcast
5:15 PM 71.6 °F 55.4 °F 57% 29.77 in 10.0 mi SSW 15.0 mph 25.3 mph N/A   Overcast
5:35 PM 69.8 °F 55.4 °F 60% 29.77 in 10.0 mi SW 17.3 mph 23.0 mph N/A   Overcast
5:55 PM 69.8 °F 55.4 °F 60% 29.77 in 10.0 mi SW 16.1 mph 25.3 mph N/A   Overcast
6:15 PM 66.2 °F 55.4 °F 68% 29.80 in 8.0 mi WSW 18.4 mph 26.5 mph 0.04 in   Mostly Cloudy
6:35 PM 64.4 °F 55.4 °F 73% 29.80 in 10.0 mi WSW 10.4 mph - 0.04 in   Overcast
6:55 PM 62.6 °F 55.4 °F 77% 29.81 in 10.0 mi WSW 12.7 mph - 0.04 in   Overcast
7:15 PM 62.6 °F 53.6 °F 72% 29.83 in 10.0 mi West 12.7 mph - N/A   Mostly Cloudy
7:35 PM 62.6 °F 53.6 °F 72% 29.84 in 10.0 mi West 12.7 mph 23.0 mph N/A   Partly Cloudy
7:55 PM 64.4 °F 53.6 °F 68% 29.85 in 10.0 mi West 15.0 mph 18.4 mph N/A   Mostly Cloudy
8:15 PM 62.6 °F 51.8 °F 68% 29.86 in 10.0 mi West 10.4 mph 19.6 mph N/A   Overcast
8:35 PM 62.6 °F 51.8 °F 68% 29.87 in 10.0 mi West 12.7 mph - N/A   Overcast
8:55 PM 62.6 °F 51.8 °F 68% 29.88 in 10.0 mi West 12.7 mph 17.3 mph N/A   Scattered Clouds
9:15 PM 62.6 °F 51.8 °F 68% 29.89 in 10.0 mi West 9.2 mph - N/A   Scattered Clouds
9:35 PM 62.6 °F 51.8 °F 68% 29.90 in 10.0 mi WNW 10.4 mph 17.3 mph N/A   Mostly Cloudy
9:55 PM 60.8 °F 51.8 °F 72% 29.90 in 10.0 mi West 8.1 mph - N/A   Scattered Clouds
10:15 PM 60.8 °F 50.0 °F 68% 29.91 in 10.0 mi WSW 8.1 mph - N/A   Clear
10:35 PM 57.2 °F 48.2 °F 72% 29.92 in 10.0 mi WSW 6.9 mph - N/A   Clear
10:55 PM 57.2 °F 48.2 °F 72% 29.92 in 10.0 mi WSW 6.9 mph - N/A   Partly Cloudy
11:15 PM 57.2 °F 48.2 °F 72% 29.91 in 10.0 mi West 4.6 mph - N/A   Scattered Clouds
11:35 PM 55.4 °F 46.4 °F 72% 29.92 in 10.0 mi WSW 4.6 mph - N/A   Partly Cloudy
11:55 PM 55.4 °F 48.2 °F 77% 29.91 in 10.0 mi WSW 4.6 mph - N/A   Mostly Cloudy